Time;durP1;ratioP1;P1;durP2;ratioP2;P2;SDS_P1;SDS_P2;PMS_P1;PMS_P2;Temp;Humidity;BMP_temperature;BMP_pressure;BME280_temperature;BME280_humidity;BME280_pressure;Samples;Min_cycle;Max_cycle;Signal;HPM_P1;HPM_P2
2022/01/04 00:00:24;;;;;;;21.55;13.75;;;21.80;84.70;;;;;;1884697;74;21123;-81
2022/01/04 00:02:56;;;;;;;24.65;14.23;;;21.80;85.10;;;;;;1880611;75;21134;-81
2022/01/04 00:05:28;;;;;;;20.25;12.63;;;21.80;85.40;;;;;;1878293;75;21575;-82
2022/01/04 00:08:00;;;;;;;27.37;19.95;;;21.70;85.30;;;;;;1887032;75;21187;-81
2022/01/04 00:10:33;;;;;;;40.78;27.52;;;21.80;84.90;;;;;;1851767;76;21146;-82
2022/01/04 00:15:39;;;;;;;26.10;14.65;;;21.90;84.90;;;;;;1855361;76;21249;-82
2022/01/04 00:18:09;;;;;;;21.30;14.50;;;21.90;86.00;;;;;;1817452;78;21626;-82
2022/01/04 00:20:40;;;;;;;22.05;15.35;;;21.90;85.20;;;;;;1843796;76;21226;-81
2022/01/04 00:23:11;;;;;;;20.77;13.90;;;21.90;85.20;;;;;;1879875;76;21212;-82
2022/01/04 00:25:42;;;;;;;23.12;14.43;;;21.90;85.20;;;;;;1853266;76;21256;-83
2022/01/04 00:28:14;;;;;;;29.30;20.05;;;21.90;84.80;;;;;;1856967;76;21440;-82
2022/01/04 00:30:45;;;;;;;27.82;18.37;;;21.90;84.40;;;;;;1885953;75;21082;-82
2022/01/04 00:33:17;;;;;;;20.43;13.30;;;22.00;83.70;;;;;;1861084;75;21177;-82
2022/01/04 00:35:51;;;;;;;20.62;13.93;;;22.00;83.30;;;;;;1911135;74;21176;-82
2022/01/04 00:38:21;;;;;;;34.33;15.10;;;22.10;83.00;;;;;;1874665;75;21134;-82
2022/01/04 00:40:53;;;;;;;21.35;15.15;;;22.10;82.50;;;;;;1856853;76;21172;-82
2022/01/04 00:43:24;;;;;;;24.40;17.12;;;22.20;82.40;;;;;;1887405;74;21212;-81
2022/01/04 00:46:00;;;;;;;18.65;12.80;;;22.20;82.10;;;;;;1886788;75;21133;-82
2022/01/04 00:50:59;;;;;;;15.20;11.57;;;22.30;81.60;;;;;;1879405;75;21166;-82
2022/01/04 00:53:30;;;;;;;23.62;12.58;;;22.30;81.60;;;;;;1876264;75;21177;-82
2022/01/04 00:56:00;;;;;;;17.95;13.43;;;22.40;81.60;;;;;;1855508;76;21538;-82
2022/01/04 00:58:31;;;;;;;18.37;12.13;;;22.40;81.50;;;;;;1858157;76;21560;-82
2022/01/04 01:01:02;;;;;;;17.12;12.37;;;22.40;80.90;;;;;;1855223;76;21102;-83
2022/01/04 01:03:33;;;;;;;19.73;11.85;;;22.50;80.70;;;;;;1904239;74;21699;-82
2022/01/04 01:06:04;;;;;;;18.15;12.95;;;22.60;80.70;;;;;;1894567;74;21173;-82
2022/01/04 01:08:35;;;;;;;19.52;14.00;;;22.60;80.70;;;;;;1884152;74;21247;-82
2022/01/04 01:11:07;;;;;;;16.48;12.50;;;22.60;80.70;;;;;;1909226;75;21192;-83
2022/01/04 01:13:39;;;;;;;25.20;16.57;;;22.60;80.50;;;;;;1855905;75;21210;-83
2022/01/04 01:16:10;;;;;;;28.05;14.25;;;22.60;80.60;;;;;;1843262;76;21158;-84
2022/01/04 01:18:42;;;;;;;26.42;15.40;;;22.60;80.70;;;;;;1868734;75;21570;-84
2022/01/04 01:21:13;;;;;;;22.55;13.58;;;22.60;80.70;;;;;;1851253;75;21074;-83
2022/01/04 01:23:44;;;;;;;18.15;12.70;;;22.70;80.70;;;;;;1875733;75;21613;-83
2022/01/04 01:26:15;;;;;;;14.95;11.15;;;22.70;80.40;;;;;;1863892;76;21142;-82
2022/01/04 01:28:46;;;;;;;15.98;12.18;;;22.70;80.40;;;;;;1882263;75;21254;-84
2022/01/04 01:31:20;;;;;;;18.82;12.33;;;22.80;79.60;;;;;;1849240;77;21192;-84
2022/01/04 01:33:50;;;;;;;20.82;12.68;;;22.80;79.70;;;;;;1852937;75;21092;-84
2022/01/04 01:36:21;;;;;;;20.00;11.88;;;22.80;79.80;;;;;;1883020;75;21075;-83
2022/01/04 01:38:52;;;;;;;17.15;11.65;;;22.90;79.90;;;;;;1844673;76;21132;-84
2022/01/04 01:41:23;;;;;;;16.15;11.88;;;22.90;79.70;;;;;;1870562;75;21172;-84
2022/01/04 01:43:54;;;;;;;16.50;12.78;;;22.90;79.80;;;;;;1895961;73;21173;-83
2022/01/04 01:46:25;;;;;;;18.37;12.33;;;23.00;79.60;;;;;;1859765;75;21170;-83
2022/01/04 01:48:56;;;;;;;20.25;11.88;;;22.90;79.70;;;;;;1889904;74;21127;-84
2022/01/04 01:51:30;;;;;;;17.48;12.40;;;23.00;79.60;;;;;;1851323;75;21115;-83
2022/01/04 01:54:01;;;;;;;18.10;11.90;;;23.00;79.30;;;;;;1853861;76;21142;-84
2022/01/04 01:56:32;;;;;;;22.42;11.70;;;23.10;79.10;;;;;;1852483;76;23133;-84
2022/01/04 01:59:05;;;;;;;16.57;12.33;;;23.10;78.60;;;;;;1841964;77;21099;-85
2022/01/04 02:01:36;;;;;;;16.17;11.70;;;23.20;78.80;;;;;;1878414;76;21199;-83
2022/01/04 02:04:07;;;;;;;19.40;12.18;;;23.30;78.10;;;;;;1851893;76;21175;-83
2022/01/04 02:06:38;;;;;;;22.07;12.68;;;23.30;77.80;;;;;;1881335;75;21641;-84
2022/01/04 02:09:10;;;;;;;17.07;12.03;;;23.30;77.60;;;;;;1873965;74;21145;-83
2022/01/04 02:11:43;;;;;;;18.60;11.68;;;23.40;77.90;;;;;;1868271;75;21164;-84
2022/01/04 02:14:14;;;;;;;14.18;11.83;;;23.40;77.50;;;;;;1867048;74;21133;-84
2022/01/04 02:16:45;;;;;;;16.60;12.85;;;23.40;77.10;;;;;;1845537;76;21161;-86
2022/01/04 02:19:16;;;;;;;18.77;12.10;;;23.50;77.30;;;;;;1822934;78;21243;-84
2022/01/04 02:21:48;;;;;;;17.82;12.37;;;23.50;77.80;;;;;;1846135;76;21148;-87
2022/01/04 02:24:22;;;;;;;20.00;13.62;;;23.50;76.70;;;;;;1814262;78;21192;-84
2022/01/04 02:26:51;;;;;;;18.98;12.78;;;23.50;76.80;;;;;;1860867;76;21182;-85
2022/01/04 02:29:22;;;;;;;18.37;13.20;;;23.50;77.00;;;;;;1831724;76;21166;-82
2022/01/04 02:31:53;;;;;;;19.65;12.37;;;23.50;76.70;;;;;;1841692;76;21204;-86
2022/01/04 02:34:24;;;;;;;18.85;11.80;;;23.50;76.80;;;;;;1855467;76;21594;-83
2022/01/04 02:36:54;;;;;;;16.95;12.00;;;23.60;76.80;;;;;;1855987;75;21243;-84
2022/01/04 02:39:25;;;;;;;16.30;11.93;;;23.60;76.40;;;;;;1896697;74;21165;-83
2022/01/04 02:41:56;;;;;;;15.98;10.95;;;23.70;76.50;;;;;;1848130;77;21208;-86
2022/01/04 02:44:26;;;;;;;20.95;12.05;;;23.70;76.20;;;;;;1834838;77;21190;-85
2022/01/04 02:46:57;;;;;;;15.53;11.28;;;23.70;75.90;;;;;;1873186;75;21808;-86
2022/01/04 02:49:28;;;;;;;20.65;12.03;;;23.70;76.00;;;;;;1856006;74;21109;-84
2022/01/04 02:51:59;;;;;;;15.70;10.98;;;23.70;76.00;;;;;;1832950;76;21631;-84
2022/01/04 02:54:31;;;;;;;18.67;12.60;;;23.70;75.80;;;;;;1865065;76;21175;-83
2022/01/04 02:57:05;;;;;;;17.80;11.88;;;23.80;75.80;;;;;;1877756;76;21301;-84
2022/01/04 02:59:36;;;;;;;16.60;11.25;;;23.80;76.00;;;;;;1861289;76;21192;-83
2022/01/04 03:02:07;;;;;;;17.00;12.18;;;23.80;75.80;;;;;;1895325;75;21199;-82
2022/01/04 03:04:38;;;;;;;15.93;11.18;;;23.90;75.90;;;;;;1888102;75;21113;-83
2022/01/04 03:07:09;;;;;;;16.30;12.60;;;23.90;75.80;;;;;;1863849;76;21228;-84
2022/01/04 03:09:40;;;;;;;15.20;11.57;;;23.90;75.60;;;;;;1851940;76;21138;-84
2022/01/04 03:12:11;;;;;;;16.12;11.85;;;24.00;75.40;;;;;;1842332;77;21158;-83
2022/01/04 03:14:42;;;;;;;15.63;11.88;;;24.00;75.20;;;;;;1880430;75;21134;-84
2022/01/04 03:17:13;;;;;;;18.17;12.82;;;24.10;75.10;;;;;;1878399;75;21228;-84
2022/01/04 03:19:44;;;;;;;17.32;11.83;;;24.20;74.90;;;;;;1875977;76;21181;-84
2022/01/04 03:22:15;;;;;;;17.23;11.45;;;24.10;74.80;;;;;;1878411;76;21137;-84
2022/01/04 03:24:46;;;;;;;17.45;11.18;;;24.20;74.40;;;;;;1871304;76;21176;-83
2022/01/04 03:27:16;;;;;;;15.72;10.65;;;24.20;74.30;;;;;;1875194;76;21116;-83
2022/01/04 03:29:47;;;;;;;18.98;11.43;;;24.30;74.40;;;;;;1879764;74;21134;-82
2022/01/04 03:32:18;;;;;;;15.70;10.82;;;24.30;74.30;;;;;;1896653;73;21636;-82
2022/01/04 03:34:50;;;;;;;15.72;10.35;;;24.40;74.00;;;;;;1853225;75;21095;-82
2022/01/04 03:37:21;;;;;;;20.90;11.10;;;24.40;73.70;;;;;;1858317;75;21142;-82
2022/01/04 03:39:52;;;;;;;17.75;12.28;;;24.50;73.60;;;;;;1842137;76;21085;-82
2022/01/04 03:42:26;;;;;;;13.25;10.75;;;24.60;73.20;;;;;;1846508;76;21138;-82
2022/01/04 03:44:56;;;;;;;14.78;9.93;;;24.70;73.00;;;;;;1851837;76;21283;-83
2022/01/04 03:47:27;;;;;;;12.37;9.58;;;24.70;72.40;;;;;;1866685;76;21161;-82
2022/01/04 03:49:58;;;;;;;17.98;10.78;;;24.80;72.40;;;;;;1838317;75;21139;-82
2022/01/04 03:52:30;;;;;;;19.40;11.03;;;24.90;72.20;;;;;;1862681;76;21226;-81
2022/01/04 03:55:01;;;;;;;15.38;10.43;;;25.00;72.10;;;;;;1855756;76;21125;-81
2022/01/04 03:57:32;;;;;;;13.22;9.85;;;25.00;71.10;;;;;;1859946;76;21133;-82
2022/01/04 04:00:08;;;;;;;;;;;25.10;70.90;;;;;;1839451;76;21166;-81
2022/01/04 04:02:40;;;;;;;15.78;10.10;;;25.10;71.30;;;;;;1830123;77;20186;-82
2022/01/04 04:05:12;;;;;;;12.98;8.80;;;25.20;70.70;;;;;;1870968;76;21992;-80
2022/01/04 04:07:44;;;;;;;12.58;9.13;;;25.20;70.70;;;;;;1880146;76;21134;-83
2022/01/04 04:10:15;;;;;;;12.98;8.70;;;25.30;70.20;;;;;;1879825;74;21162;-82
2022/01/04 04:12:46;;;;;;;18.12;9.78;;;25.30;70.10;;;;;;1882254;73;21087;-83
2022/01/04 04:15:16;;;;;;;14.13;9.08;;;25.30;70.10;;;;;;1843295;76;21162;-83
2022/01/04 04:17:48;;;;;;;18.67;9.80;;;25.30;69.60;;;;;;1848074;75;22664;-82
2022/01/04 04:20:20;;;;;;;12.20;9.53;;;25.30;70.50;;;;;;1846091;75;21222;-83
2022/01/04 04:22:54;;;;;;;17.15;10.72;;;25.30;69.50;;;;;;1868422;76;21227;-82
2022/01/04 04:25:25;;;;;;;15.75;9.45;;;25.30;69.70;;;;;;1863201;76;21164;-81
2022/01/04 04:27:56;;;;;;;13.88;9.45;;;25.30;69.70;;;;;;1861247;76;21176;-82
2022/01/04 04:30:27;;;;;;;15.18;9.38;;;25.30;70.80;;;;;;1850839;76;21237;-81
2022/01/04 04:32:58;;;;;;;15.78;10.75;;;25.40;70.00;;;;;;1846562;77;21203;-81
2022/01/04 04:35:31;;;;;;;14.50;10.43;;;25.40;69.40;;;;;;1839856;76;21649;-81
2022/01/04 04:38:03;;;;;;;18.10;10.85;;;25.40;69.30;;;;;;1846483;76;21158;-81
2022/01/04 04:40:35;;;;;;;15.83;10.60;;;25.40;69.70;;;;;;1848035;76;21159;-81
2022/01/04 04:43:07;;;;;;;14.95;10.30;;;25.50;69.50;;;;;;1880985;74;21218;-82
2022/01/04 04:45:41;;;;;;;14.45;10.18;;;25.50;69.30;;;;;;1832642;75;22123;-82
2022/01/04 04:48:15;;;;;;;14.65;10.15;;;25.50;69.20;;;;;;1848747;76;21263;-83
2022/01/04 04:50:48;;;;;;;16.17;10.70;;;25.60;68.90;;;;;;1854796;75;21897;-81
2022/01/04 04:53:19;;;;;;;14.58;9.63;;;25.80;69.20;;;;;;1848147;76;21114;-81
2022/01/04 04:55:50;;;;;;;15.18;9.53;;;26.00;67.90;;;;;;1854902;76;21128;-80
2022/01/04 04:58:21;;;;;;;15.53;9.83;;;26.10;67.10;;;;;;1860486;75;21235;-82
2022/01/04 05:00:56;;;;;;;17.42;11.83;;;26.20;67.10;;;;;;1876441;74;21157;-81
2022/01/04 05:03:30;;;;;;;14.53;10.78;;;26.20;67.00;;;;;;1849995;75;21674;-82
2022/01/04 05:06:01;;;;;;;15.48;11.15;;;26.20;66.50;;;;;;1860078;74;21751;-82
2022/01/04 05:08:32;;;;;;;20.23;11.30;;;26.20;66.90;;;;;;1858371;75;22002;-82
2022/01/04 05:11:06;;;;;;;16.35;10.50;;;26.20;66.70;;;;;;1831729;76;21170;-83
2022/01/04 05:13:37;;;;;;;16.50;10.80;;;26.30;66.60;;;;;;1882037;75;21095;-83
2022/01/04 05:16:08;;;;;;;18.25;12.20;;;26.30;66.60;;;;;;1890198;74;21158;-83
2022/01/04 05:18:39;;;;;;;15.20;11.63;;;26.40;66.80;;;;;;1893631;74;21148;-83
2022/01/04 05:21:12;;;;;;;13.98;11.18;;;26.50;66.30;;;;;;1891551;74;21096;-82
2022/01/04 05:23:46;;;;;;;15.63;11.60;;;26.60;65.90;;;;;;1854670;75;21574;-81
2022/01/04 05:26:18;;;;;;;15.60;11.40;;;26.80;65.70;;;;;;1876030;74;21175;-81
2022/01/04 05:28:50;;;;;;;18.80;11.53;;;26.90;64.50;;;;;;1871827;75;21216;-81
2022/01/04 05:31:24;;;;;;;15.93;11.28;;;27.00;63.90;;;;;;1823083;77;21148;-82
2022/01/04 05:33:58;;;;;;;16.45;10.95;;;27.10;63.60;;;;;;1837818;77;21149;-82
2022/01/04 05:36:28;;;;;;;18.30;11.57;;;27.10;64.10;;;;;;1829125;76;21661;-82
2022/01/04 05:39:00;;;;;;;15.40;10.85;;;27.10;64.30;;;;;;1834676;76;22051;-82
2022/01/04 05:41:34;;;;;;;16.62;11.30;;;27.20;65.10;;;;;;1830547;76;21092;-83
2022/01/04 05:44:07;;;;;;;16.37;11.48;;;27.20;63.90;;;;;;1863206;75;21224;-82
2022/01/04 05:46:38;;;;;;;17.50;12.18;;;27.20;63.60;;;;;;1875326;74;21192;-82
2022/01/04 05:49:10;;;;;;;17.45;11.75;;;27.20;63.70;;;;;;1874286;74;21167;-82
2022/01/04 05:51:42;;;;;;;16.55;11.45;;;27.20;62.90;;;;;;1824480;77;21234;-84
2022/01/04 05:54:24;;;;;;;18.12;11.80;;;27.20;63.10;;;;;;1894416;74;21165;-85
2022/01/04 05:56:57;;;;;;;16.75;12.20;;;27.20;62.80;;;;;;1917621;73;21062;-83
2022/01/04 05:59:28;;;;;;;14.30;10.90;;;27.30;62.70;;;;;;1897060;74;21521;-82
2022/01/04 06:01:59;;;;;;;17.12;12.45;;;27.30;62.50;;;;;;1880015;74;21208;-81
2022/01/04 06:04:30;;;;;;;16.27;12.05;;;27.40;62.60;;;;;;1811214;76;21180;-82
2022/01/04 06:07:01;;;;;;;22.65;12.80;;;27.40;61.70;;;;;;1845408;76;21124;-83
2022/01/04 06:09:41;;;;;;;18.12;12.60;;;27.40;62.90;;;;;;1814949;78;21246;-81
2022/01/04 06:14:50;;;;;;;15.83;12.93;;;27.30;62.50;;;;;;1838557;76;21247;-82
2022/01/04 06:17:11;;;;;;;18.45;11.88;;;27.30;63.20;;;;;;1872108;74;21150;-82
2022/01/04 06:19:42;;;;;;;17.70;11.83;;;27.30;63.10;;;;;;1896203;74;21225;-81
2022/01/04 06:22:13;;;;;;;16.90;11.85;;;27.30;63.00;;;;;;1876041;74;21221;-81
2022/01/04 06:24:44;;;;;;;17.48;12.18;;;27.20;63.30;;;;;;1864549;74;21107;-82
2022/01/04 06:27:15;;;;;;;16.48;11.15;;;27.20;63.20;;;;;;1885005;73;21169;-81
2022/01/04 06:29:46;;;;;;;16.93;11.60;;;27.20;62.90;;;;;;1880590;73;21181;-81
2022/01/04 06:32:36;;;;;;;19.23;13.20;;;27.20;62.60;;;;;;1891080;74;21216;-81
2022/01/04 06:35:07;;;;;;;20.48;12.18;;;27.30;62.50;;;;;;1803729;78;21159;-81
2022/01/04 06:37:38;;;;;;;19.05;11.30;;;27.40;62.40;;;;;;1801441;78;21698;-81
2022/01/04 06:40:10;;;;;;;14.23;10.85;;;27.50;62.40;;;;;;1789318;78;21626;-83
2022/01/04 06:42:42;;;;;;;16.95;11.50;;;27.50;62.30;;;;;;1792575;78;21229;-82
2022/01/04 06:45:14;;;;;;;16.45;10.35;;;27.60;61.90;;;;;;1788474;79;21104;-81
2022/01/04 06:47:45;;;;;;;15.60;10.08;;;27.70;61.10;;;;;;1792219;78;21186;-82
2022/01/04 06:50:18;;;;;;;15.45;9.60;;;27.80;61.00;;;;;;1800031;79;21241;-81
2022/01/04 06:52:49;;;;;;;15.72;10.88;;;28.00;61.30;;;;;;1791778;79;21178;-82
2022/01/04 06:55:20;;;;;;;16.02;11.33;;;28.00;61.20;;;;;;1787340;79;21783;-82
2022/01/04 06:57:50;;;;;;;16.15;12.10;;;28.10;60.20;;;;;;1779162;79;21537;-81
2022/01/04 07:00:21;;;;;;;16.80;11.20;;;28.20;59.50;;;;;;1806720;79;21206;-81
2022/01/04 07:02:53;;;;;;;14.90;11.70;;;28.20;59.70;;;;;;1809481;78;21175;-81
2022/01/04 07:05:24;;;;;;;14.80;11.05;;;28.10;59.90;;;;;;1813083;78;21210;-81
2022/01/04 07:07:55;;;;;;;20.32;11.30;;;28.00;60.00;;;;;;1780491;79;21187;-82
2022/01/04 07:10:26;;;;;;;17.60;12.10;;;28.00;60.30;;;;;;1836705;77;21108;-81
2022/01/04 07:12:57;;;;;;;14.33;11.18;;;27.90;60.40;;;;;;1836245;77;21193;-81
2022/01/04 07:15:28;;;;;;;14.53;10.23;;;27.80;60.60;;;;;;1773772;80;21187;-82
2022/01/04 07:17:59;;;;;;;13.48;10.23;;;27.70;60.20;;;;;;1790645;79;21597;-81
2022/01/04 07:20:30;;;;;;;18.05;10.88;;;27.70;60.90;;;;;;1792214;78;21288;-82
2022/01/04 07:23:01;;;;;;;16.40;10.88;;;27.70;60.60;;;;;;1762207;80;21115;-81
2022/01/04 07:25:32;;;;;;;20.37;11.60;;;27.70;60.60;;;;;;1781904;79;21306;-83
2022/01/04 07:28:02;;;;;;;16.75;10.70;;;27.80;60.60;;;;;;1779008;80;21200;-83
2022/01/04 07:30:33;;;;;;;17.05;10.30;;;27.90;60.20;;;;;;1792363;79;21121;-80
2022/01/04 07:33:04;;;;;;;13.60;9.78;;;27.90;60.00;;;;;;1781943;79;21127;-81
2022/01/04 07:35:35;;;;;;;14.05;9.73;;;27.90;60.00;;;;;;1790216;77;21184;-80
2022/01/04 07:38:06;;;;;;;16.40;9.80;;;27.90;60.10;;;;;;1794837;78;21121;-80
2022/01/04 07:40:36;;;;;;;14.13;9.38;;;27.90;60.10;;;;;;1801363;77;21625;-80
2022/01/04 07:43:07;;;;;;;15.03;10.75;;;27.90;60.00;;;;;;1786267;78;21116;-81
2022/01/04 07:45:38;;;;;;;14.23;9.38;;;27.90;59.80;;;;;;1770920;78;21184;-81
2022/01/04 07:48:10;;;;;;;15.72;9.15;;;28.00;60.00;;;;;;1788310;76;21301;-82
2022/01/04 07:50:41;;;;;;;16.73;10.20;;;28.00;60.00;;;;;;1814286;77;21178;-80
2022/01/04 07:53:14;;;;;;;14.60;10.08;;;28.00;60.00;;;;;;1827126;77;21564;-82
2022/01/04 07:55:44;;;;;;;13.03;8.53;;;28.00;59.80;;;;;;1826488;77;21134;-81
2022/01/04 07:58:16;;;;;;;15.45;9.50;;;28.10;59.50;;;;;;1808746;77;21144;-81
2022/01/04 08:00:47;;;;;;;10.40;8.10;;;28.10;59.50;;;;;;1818685;77;21202;-81
2022/01/04 08:03:19;;;;;;;13.78;8.80;;;28.20;60.00;;;;;;1830416;77;21233;-80
2022/01/04 08:05:50;;;;;;;14.23;8.63;;;28.20;59.00;;;;;;1813748;77;21698;-82
2022/01/04 08:08:21;;;;;;;14.75;8.18;;;28.20;58.90;;;;;;1819688;77;21189;-81
2022/01/04 08:10:57;;;;;;;11.75;7.15;;;28.20;58.80;;;;;;1813617;77;21248;-82
2022/01/04 08:13:29;;;;;;;11.93;7.35;;;28.10;58.70;;;;;;1815197;77;21146;-83
2022/01/04 08:15:59;;;;;;;15.68;9.30;;;28.00;58.80;;;;;;1824035;77;21496;-81
2022/01/04 08:18:30;;;;;;;9.58;7.87;;;27.90;59.20;;;;;;1818149;77;21645;-82
2022/01/04 08:21:04;;;;;;;14.00;8.78;;;28.00;59.40;;;;;;1833515;77;21272;-81
2022/01/04 08:23:34;;;;;;;12.23;8.40;;;27.90;59.60;;;;;;1809645;77;21193;-81
2022/01/04 08:26:23;;;;;;;11.43;8.40;;;27.90;59.70;;;;;;1825193;77;21638;-81
2022/01/04 08:28:42;;;;;;;12.13;8.90;;;28.00;59.50;;;;;;1813626;77;21185;-84
2022/01/04 08:31:15;;;;;;;14.25;9.85;;;27.90;59.10;;;;;;1812077;78;21116;-83
2022/01/04 08:33:47;;;;;;;12.13;8.73;;;27.90;59.30;;;;;;1822876;77;21226;-82
2022/01/04 08:36:18;;;;;;;12.33;8.80;;;27.80;59.10;;;;;;1818814;77;21158;-82
2022/01/04 08:38:49;;;;;;;12.90;8.70;;;27.70;59.40;;;;;;1814558;77;21255;-82
2022/01/04 08:41:20;;;;;;;16.20;10.68;;;27.70;59.60;;;;;;1834477;77;21189;-83
2022/01/04 08:43:54;;;;;;;15.80;8.35;;;27.60;59.70;;;;;;1834392;77;21958;-86
2022/01/04 08:46:26;;;;;;;12.18;7.55;;;27.60;60.70;;;;;;1801715;78;21191;-83
2022/01/04 08:48:57;;;;;;;12.28;7.30;;;27.70;59.80;;;;;;1821531;77;21130;-83
2022/01/04 08:51:27;;;;;;;13.80;7.35;;;27.70;59.20;;;;;;1850849;77;21216;-82
2022/01/04 08:54:00;;;;;;;12.00;7.55;;;27.80;59.30;;;;;;1841415;77;21177;-82
2022/01/04 08:56:35;;;;;;;11.22;7.50;;;27.90;59.20;;;;;;1811277;78;21134;-83
2022/01/04 08:59:13;;;;;;;12.82;8.85;;;28.00;58.70;;;;;;1802460;78;21224;-83
2022/01/04 09:01:44;;;;;;;12.63;7.92;;;28.00;58.70;;;;;;1790157;79;21198;-82
2022/01/04 09:04:19;;;;;;;13.35;8.28;;;28.00;58.20;;;;;;1757010;80;21227;-83
2022/01/04 09:06:47;;;;;;;10.68;7.65;;;28.10;58.50;;;;;;1790182;79;21201;-81
2022/01/04 09:09:19;;;;;;;11.88;7.58;;;28.10;58.50;;;;;;1799470;79;21611;-83
2022/01/04 09:11:50;;;;;;;9.68;7.05;;;28.10;58.50;;;;;;1798630;79;21257;-83
2022/01/04 09:14:29;;;;;;;8.68;6.78;;;28.10;58.40;;;;;;1812290;78;21127;-81
2022/01/04 09:19:28;;;;;;;11.53;7.87;;;28.10;58.20;;;;;;1816652;77;21114;-83
2022/01/04 09:21:59;;;;;;;13.78;9.00;;;28.10;58.20;;;;;;1775269;80;21177;-81
2022/01/04 09:24:30;;;;;;;13.93;8.23;;;28.10;58.10;;;;;;1761570;81;21252;-84
2022/01/04 09:27:05;;;;;;;11.38;7.72;;;28.10;58.20;;;;;;1792161;78;21121;-82
2022/01/04 09:29:35;;;;;;;11.83;8.23;;;28.00;58.20;;;;;;1760282;80;21135;-82
2022/01/04 09:32:08;;;;;;;10.72;6.95;;;27.90;58.30;;;;;;1804567;79;21191;-81
2022/01/04 09:34:39;;;;;;;13.50;7.37;;;27.90;58.30;;;;;;1801371;78;21232;-82
2022/01/04 09:37:10;;;;;;;10.78;8.13;;;27.80;58.20;;;;;;1768288;79;21456;-81
2022/01/04 09:39:41;;;;;;;10.10;8.23;;;27.80;58.00;;;;;;1798182;77;21190;-81
2022/01/04 09:42:12;;;;;;;12.37;8.00;;;27.70;58.30;;;;;;1803032;76;21572;-82
2022/01/04 09:44:43;;;;;;;10.13;7.72;;;27.60;58.30;;;;;;1796357;76;21119;-82
2022/01/04 09:47:14;;;;;;;12.25;7.90;;;27.60;58.40;;;;;;1760015;79;21269;-82
2022/01/04 09:49:45;;;;;;;12.05;8.20;;;27.50;58.50;;;;;;1786205;78;21118;-81
2022/01/04 09:52:19;;;;;;;14.63;8.70;;;27.50;58.70;;;;;;1757703;80;21219;-81
2022/01/04 09:54:52;;;;;;;12.55;8.23;;;27.40;58.60;;;;;;1771277;79;21831;-82
2022/01/04 09:57:24;;;;;;;10.45;7.62;;;27.40;58.80;;;;;;1806830;77;21153;-82
2022/01/04 09:59:55;;;;;;;14.43;7.53;;;27.30;58.70;;;;;;1774068;79;21198;-81
2022/01/04 10:02:36;;;;;;;12.40;8.63;;;27.30;58.80;;;;;;1773108;79;21265;-82
2022/01/04 10:05:08;;;;;;;16.32;9.40;;;27.30;59.00;;;;;;1826397;77;21154;-81
2022/01/04 10:07:39;;;;;;;14.45;8.48;;;27.30;59.20;;;;;;1759702;79;21166;-81
2022/01/04 10:10:12;;;;;;;17.65;9.73;;;27.20;59.30;;;;;;1765816;79;21220;-82
2022/01/04 10:12:45;;;;;;;13.58;9.80;;;27.20;59.40;;;;;;1803163;76;21259;-81
2022/01/04 10:15:18;;;;;;;14.55;9.63;;;27.20;59.60;;;;;;1799891;76;21191;-81
2022/01/04 10:17:49;;;;;;;17.90;10.53;;;27.20;59.70;;;;;;1785124;76;21137;-83
2022/01/04 10:20:20;;;;;;;17.57;10.43;;;27.10;59.80;;;;;;1759407;80;21720;-82
2022/01/04 10:22:51;;;;;;;15.32;11.40;;;27.20;60.00;;;;;;1769179;79;21249;-83
2022/01/04 10:25:22;;;;;;;16.37;10.32;;;27.10;60.10;;;;;;1775609;79;21190;-82
2022/01/04 10:27:53;;;;;;;22.05;14.28;;;27.10;60.20;;;;;;1754312;79;21251;-81
2022/01/04 10:30:28;;;;;;;18.52;11.20;;;27.10;60.50;;;;;;1771467;79;21523;-82
2022/01/04 10:33:01;;;;;;;17.02;10.23;;;27.10;60.50;;;;;;1820224;77;21186;-83
2022/01/04 10:35:34;;;;;;;18.85;11.28;;;27.00;60.40;;;;;;1797560;76;21638;-82
2022/01/04 10:38:08;;;;;;;16.52;11.55;;;27.00;60.40;;;;;;1782277;78;21697;-82
2022/01/04 10:40:41;;;;;;;20.40;10.20;;;27.00;60.40;;;;;;1798533;77;21581;-81
2022/01/04 10:43:14;;;;;;;18.50;10.88;;;27.00;60.60;;;;;;1762723;80;21292;-81
2022/01/04 10:45:45;;;;;;;19.23;10.93;;;26.90;60.70;;;;;;1790700;78;21174;-82
2022/01/04 10:48:19;;;;;;;18.12;11.75;;;26.90;60.80;;;;;;1787340;77;21710;-80
2022/01/04 10:50:52;;;;;;;16.85;11.05;;;26.90;60.80;;;;;;1823463;77;21248;-82
2022/01/04 10:53:26;;;;;;;31.48;13.43;;;26.90;60.80;;;;;;1770817;79;21692;-83
2022/01/04 10:55:59;;;;;;;18.70;11.43;;;26.90;60.90;;;;;;1799453;78;21788;-80
2022/01/04 10:58:32;;;;;;;21.07;11.83;;;26.80;60.90;;;;;;1787354;77;21186;-83
2022/01/04 11:01:06;;;;;;;20.00;12.95;;;26.80;60.80;;;;;;1774716;79;21124;-81
2022/01/04 11:03:39;;;;;;;18.27;12.40;;;26.80;60.90;;;;;;1774173;79;21231;-80
2022/01/04 11:06:12;;;;;;;19.60;12.50;;;26.80;61.00;;;;;;1784003;79;21696;-82
2022/01/04 11:08:44;;;;;;;24.05;15.15;;;26.80;61.30;;;;;;1782853;79;21709;-82
2022/01/04 11:11:15;;;;;;;22.13;14.68;;;26.70;61.30;;;;;;1768271;77;21099;-81
2022/01/04 11:13:51;;;;;;;22.62;14.30;;;26.70;61.30;;;;;;1797273;77;21163;-83
2022/01/04 11:16:25;;;;;;;23.22;15.43;;;26.70;61.20;;;;;;1795069;77;21181;-83
2022/01/04 11:18:57;;;;;;;25.60;15.75;;;26.70;61.20;;;;;;1787666;77;21126;-81
2022/01/04 11:21:31;;;;;;;23.40;14.68;;;26.60;61.10;;;;;;1783753;78;21590;-82
2022/01/04 11:24:04;;;;;;;23.27;13.15;;;26.60;61.40;;;;;;1786896;78;21206;-82
2022/01/04 11:26:36;;;;;;;22.32;13.38;;;26.60;61.80;;;;;;1796649;78;21735;-82
2022/01/04 11:29:07;;;;;;;19.87;13.15;;;26.60;62.10;;;;;;1810127;79;21076;-81
2022/01/04 11:31:45;;;;;;;25.23;14.38;;;26.50;62.20;;;;;;1780500;78;21199;-82
2022/01/04 11:34:17;;;;;;;23.85;14.20;;;26.50;62.60;;;;;;1786241;79;21215;-83
2022/01/04 11:36:51;;;;;;;24.95;14.58;;;26.40;62.70;;;;;;1803623;79;21131;-82
2022/01/04 11:39:24;;;;;;;25.65;14.18;;;26.40;63.00;;;;;;1810172;78;21627;-82
2022/01/04 11:42:01;;;;;;;22.73;12.82;;;26.30;63.30;;;;;;1754806;79;21218;-83
2022/01/04 11:44:31;;;;;;;23.12;14.43;;;26.30;63.40;;;;;;1789740;79;21190;-83
2022/01/04 11:47:05;;;;;;;27.35;14.58;;;26.20;63.70;;;;;;1795908;79;21226;-83
2022/01/04 11:49:38;;;;;;;26.17;13.98;;;26.20;63.90;;;;;;1809262;78;21223;-83
2022/01/04 11:52:11;;;;;;;25.90;14.68;;;26.10;64.10;;;;;;1805081;78;21709;-84
2022/01/04 11:54:45;;;;;;;25.70;13.55;;;26.10;64.30;;;;;;1803699;79;21112;-82
2022/01/04 11:57:18;;;;;;;26.68;13.30;;;26.10;64.50;;;;;;1784985;79;21572;-83
2022/01/04 11:59:52;;;;;;;23.83;12.98;;;26.00;64.50;;;;;;1792811;77;21110;-83
2022/01/04 12:02:31;;;;;;;25.32;13.70;;;26.00;64.70;;;;;;1785813;79;21161;-83
2022/01/04 12:05:00;;;;;;;28.83;15.55;;;26.00;64.70;;;;;;1796760;78;21142;-84
2022/01/04 12:07:36;;;;;;;24.18;15.45;;;26.00;64.90;;;;;;1794970;77;21274;-82
2022/01/04 12:10:14;;;;;;;30.68;16.10;;;25.90;64.70;;;;;;1732736;79;22366;-82
2022/01/04 12:12:48;;;;;;;23.83;15.30;;;25.90;64.80;;;;;;1808630;78;21184;-82
2022/01/04 12:15:21;;;;;;;31.50;16.67;;;25.90;64.80;;;;;;1836551;76;21151;-82
2022/01/04 12:17:54;;;;;;;25.05;15.13;;;25.90;65.00;;;;;;1805319;77;21160;-81
2022/01/04 12:20:28;;;;;;;28.83;15.85;;;25.90;65.00;;;;;;1814056;77;21195;-83
2022/01/04 12:23:10;;;;;;;32.10;15.13;;;25.90;65.10;;;;;;1807095;77;21547;-81
2022/01/04 12:25:46;;;;;;;26.02;15.85;;;25.90;65.20;;;;;;1787691;78;21200;-83
2022/01/04 12:28:19;;;;;;;25.20;14.98;;;25.90;65.30;;;;;;1801215;78;21229;-82
2022/01/04 12:30:49;;;;;;;27.40;14.43;;;25.80;65.30;;;;;;1773918;79;22120;-83
2022/01/04 12:33:24;;;;;;;31.17;15.10;;;25.80;65.30;;;;;;1810831;77;21172;-82
2022/01/04 12:35:56;;;;;;;21.48;13.95;;;25.80;65.40;;;;;;1822474;78;21243;-83
2022/01/04 12:38:30;;;;;;;24.52;13.55;;;25.80;65.50;;;;;;1800498;78;21195;-83
2022/01/04 12:41:01;;;;;;;25.08;14.40;;;25.80;65.60;;;;;;1826118;78;21659;-83
2022/01/04 12:43:42;;;;;;;19.57;13.88;;;25.80;66.20;;;;;;1816791;78;21262;-83
2022/01/04 12:46:09;;;;;;;20.90;12.88;;;25.80;65.60;;;;;;1803570;78;21192;-84
2022/01/04 12:48:45;;;;;;;20.92;13.35;;;25.70;65.50;;;;;;1820715;77;21205;-81
2022/01/04 12:51:18;;;;;;;21.85;13.48;;;25.70;65.70;;;;;;1822321;78;21628;-83
2022/01/04 12:53:53;;;;;;;19.17;13.00;;;25.70;65.80;;;;;;1817500;78;21242;-83
2022/01/04 12:56:25;;;;;;;22.32;13.38;;;25.70;65.80;;;;;;1807538;77;21292;-82
2022/01/04 12:58:57;;;;;;;23.47;13.80;;;25.70;66.00;;;;;;1774392;79;21189;-82
2022/01/04 13:01:31;;;;;;;19.20;12.65;;;25.70;66.10;;;;;;1830413;78;21249;-82
2022/01/04 13:04:03;;;;;;;18.70;12.50;;;25.60;66.20;;;;;;1783042;79;21166;-81